sensor_id;sensor_type;location;lat;lon;timestamp;P1;durP1;ratioP1;P2;durP2;ratioP2
11703;SDS011;5908;51.354;7.458;2023-07-13T00:01:34;11.68;;;6.85;;
11703;SDS011;5908;51.354;7.458;2023-07-13T00:04:02;10.18;;;6.78;;
11703;SDS011;5908;51.354;7.458;2023-07-13T00:06:29;13.88;;;10.65;;
11703;SDS011;5908;51.354;7.458;2023-07-13T00:08:57;6.10;;;3.90;;
11703;SDS011;5908;51.354;7.458;2023-07-13T00:11:24;9.85;;;4.88;;
11703;SDS011;5908;51.354;7.458;2023-07-13T00:13:51;7.75;;;3.60;;
11703;SDS011;5908;51.354;7.458;2023-07-13T00:16:19;8.35;;;4.55;;
11703;SDS011;5908;51.354;7.458;2023-07-13T00:18:46;35.55;;;22.77;;
11703;SDS011;5908;51.354;7.458;2023-07-13T00:21:13;12.98;;;9.20;;
11703;SDS011;5908;51.354;7.458;2023-07-13T00:23:40;23.27;;;15.80;;
11703;SDS011;5908;51.354;7.458;2023-07-13T00:26:08;5.43;;;2.65;;
11703;SDS011;5908;51.354;7.458;2023-07-13T00:28:37;9.18;;;3.72;;
11703;SDS011;5908;51.354;7.458;2023-07-13T00:31:05;5.30;;;3.22;;
11703;SDS011;5908;51.354;7.458;2023-07-13T00:33:33;5.28;;;2.80;;
11703;SDS011;5908;51.354;7.458;2023-07-13T00:36:00;3.33;;;1.98;;
11703;SDS011;5908;51.354;7.458;2023-07-13T00:38:26;6.00;;;2.13;;
11703;SDS011;5908;51.354;7.458;2023-07-13T00:40:53;10.38;;;4.03;;
11703;SDS011;5908;51.354;7.458;2023-07-13T00:43:21;14.07;;;7.80;;
11703;SDS011;5908;51.354;7.458;2023-07-13T00:48:45;8.57;;;3.42;;
11703;SDS011;5908;51.354;7.458;2023-07-13T00:51:14;7.53;;;3.05;;
11703;SDS011;5908;51.354;7.458;2023-07-13T00:53:42;6.40;;;2.15;;
11703;SDS011;5908;51.354;7.458;2023-07-13T00:56:09;8.43;;;2.42;;
11703;SDS011;5908;51.354;7.458;2023-07-13T00:58:37;6.55;;;2.40;;
11703;SDS011;5908;51.354;7.458;2023-07-13T01:01:04;7.00;;;2.97;;
11703;SDS011;5908;51.354;7.458;2023-07-13T01:03:31;3.58;;;1.77;;
11703;SDS011;5908;51.354;7.458;2023-07-13T01:05:59;8.10;;;2.30;;
11703;SDS011;5908;51.354;7.458;2023-07-13T01:08:27;4.20;;;1.80;;
11703;SDS011;5908;51.354;7.458;2023-07-13T01:10:54;3.47;;;1.60;;
11703;SDS011;5908;51.354;7.458;2023-07-13T01:13:23;6.55;;;4.20;;
11703;SDS011;5908;51.354;7.458;2023-07-13T01:15:50;4.95;;;2.33;;
11703;SDS011;5908;51.354;7.458;2023-07-13T01:18:19;4.57;;;2.45;;
11703;SDS011;5908;51.354;7.458;2023-07-13T01:20:51;5.00;;;3.17;;
11703;SDS011;5908;51.354;7.458;2023-07-13T01:23:19;6.18;;;2.28;;
11703;SDS011;5908;51.354;7.458;2023-07-13T01:25:46;6.00;;;1.92;;
11703;SDS011;5908;51.354;7.458;2023-07-13T01:28:13;7.25;;;3.15;;
11703;SDS011;5908;51.354;7.458;2023-07-13T01:30:42;5.60;;;2.20;;
11703;SDS011;5908;51.354;7.458;2023-07-13T01:33:10;6.13;;;2.28;;
11703;SDS011;5908;51.354;7.458;2023-07-13T01:35:38;5.82;;;2.03;;
11703;SDS011;5908;51.354;7.458;2023-07-13T01:38:07;5.60;;;1.75;;
11703;SDS011;5908;51.354;7.458;2023-07-13T01:40:34;4.95;;;1.80;;
11703;SDS011;5908;51.354;7.458;2023-07-13T01:43:02;10.35;;;6.43;;
11703;SDS011;5908;51.354;7.458;2023-07-13T01:45:29;3.25;;;1.73;;
11703;SDS011;5908;51.354;7.458;2023-07-13T01:47:55;5.25;;;2.00;;
11703;SDS011;5908;51.354;7.458;2023-07-13T01:50:23;5.15;;;1.90;;
11703;SDS011;5908;51.354;7.458;2023-07-13T01:52:49;5.22;;;2.15;;
11703;SDS011;5908;51.354;7.458;2023-07-13T01:55:18;4.00;;;2.38;;
11703;SDS011;5908;51.354;7.458;2023-07-13T01:57:45;6.03;;;3.83;;
11703;SDS011;5908;51.354;7.458;2023-07-13T02:00:12;6.28;;;2.38;;
11703;SDS011;5908;51.354;7.458;2023-07-13T02:02:40;2.80;;;1.90;;
11703;SDS011;5908;51.354;7.458;2023-07-13T02:05:07;4.68;;;2.72;;
11703;SDS011;5908;51.354;7.458;2023-07-13T02:07:34;3.53;;;1.88;;
11703;SDS011;5908;51.354;7.458;2023-07-13T02:10:01;5.20;;;1.90;;
11703;SDS011;5908;51.354;7.458;2023-07-13T02:12:29;5.72;;;2.08;;
11703;SDS011;5908;51.354;7.458;2023-07-13T02:14:55;7.47;;;2.40;;
11703;SDS011;5908;51.354;7.458;2023-07-13T02:17:22;6.18;;;2.10;;
11703;SDS011;5908;51.354;7.458;2023-07-13T02:19:49;6.18;;;2.47;;
11703;SDS011;5908;51.354;7.458;2023-07-13T02:22:16;3.40;;;1.80;;
11703;SDS011;5908;51.354;7.458;2023-07-13T02:24:43;7.22;;;1.90;;
11703;SDS011;5908;51.354;7.458;2023-07-13T02:27:09;3.25;;;1.63;;
11703;SDS011;5908;51.354;7.458;2023-07-13T02:29:38;3.42;;;1.67;;
11703;SDS011;5908;51.354;7.458;2023-07-13T02:32:05;4.50;;;1.80;;
11703;SDS011;5908;51.354;7.458;2023-07-13T02:34:32;3.88;;;1.73;;
11703;SDS011;5908;51.354;7.458;2023-07-13T02:36:59;5.35;;;2.22;;
11703;SDS011;5908;51.354;7.458;2023-07-13T02:39:26;5.47;;;2.15;;
11703;SDS011;5908;51.354;7.458;2023-07-13T02:41:53;4.88;;;1.83;;
11703;SDS011;5908;51.354;7.458;2023-07-13T02:44:19;7.25;;;2.70;;
11703;SDS011;5908;51.354;7.458;2023-07-13T02:46:48;3.53;;;2.10;;
11703;SDS011;5908;51.354;7.458;2023-07-13T02:49:14;7.55;;;1.88;;
11703;SDS011;5908;51.354;7.458;2023-07-13T02:51:41;5.03;;;2.00;;
11703;SDS011;5908;51.354;7.458;2023-07-13T02:54:08;5.10;;;2.28;;
11703;SDS011;5908;51.354;7.458;2023-07-13T02:56:36;4.40;;;1.58;;
11703;SDS011;5908;51.354;7.458;2023-07-13T02:59:04;4.35;;;2.08;;
11703;SDS011;5908;51.354;7.458;2023-07-13T03:01:31;5.80;;;1.70;;
11703;SDS011;5908;51.354;7.458;2023-07-13T03:04:01;4.65;;;1.92;;
11703;SDS011;5908;51.354;7.458;2023-07-13T03:06:28;6.65;;;2.15;;
11703;SDS011;5908;51.354;7.458;2023-07-13T03:08:56;4.53;;;1.73;;
11703;SDS011;5908;51.354;7.458;2023-07-13T03:11:23;4.13;;;2.05;;
11703;SDS011;5908;51.354;7.458;2023-07-13T03:13:50;3.92;;;1.70;;
11703;SDS011;5908;51.354;7.458;2023-07-13T03:16:16;4.95;;;1.92;;
11703;SDS011;5908;51.354;7.458;2023-07-13T03:18:43;5.15;;;1.73;;
11703;SDS011;5908;51.354;7.458;2023-07-13T03:21:13;5.03;;;3.05;;
11703;SDS011;5908;51.354;7.458;2023-07-13T03:23:40;9.45;;;4.75;;
11703;SDS011;5908;51.354;7.458;2023-07-13T03:26:08;3.92;;;2.08;;
11703;SDS011;5908;51.354;7.458;2023-07-13T03:28:36;5.05;;;2.50;;
11703;SDS011;5908;51.354;7.458;2023-07-13T03:31:05;3.85;;;1.90;;
11703;SDS011;5908;51.354;7.458;2023-07-13T03:33:34;4.78;;;1.95;;
11703;SDS011;5908;51.354;7.458;2023-07-13T03:36:01;4.07;;;1.98;;
11703;SDS011;5908;51.354;7.458;2023-07-13T03:38:30;7.43;;;4.13;;
11703;SDS011;5908;51.354;7.458;2023-07-13T03:40:57;9.82;;;6.70;;
11703;SDS011;5908;51.354;7.458;2023-07-13T03:43:24;6.05;;;2.55;;
11703;SDS011;5908;51.354;7.458;2023-07-13T03:45:51;5.38;;;2.33;;
11703;SDS011;5908;51.354;7.458;2023-07-13T03:48:17;6.28;;;3.72;;
11703;SDS011;5908;51.354;7.458;2023-07-13T03:50:44;6.05;;;3.20;;
11703;SDS011;5908;51.354;7.458;2023-07-13T03:53:11;4.65;;;2.45;;
11703;SDS011;5908;51.354;7.458;2023-07-13T03:55:39;6.57;;;3.80;;
11703;SDS011;5908;51.354;7.458;2023-07-13T04:00:56;7.40;;;3.92;;
11703;SDS011;5908;51.354;7.458;2023-07-13T04:03:23;8.35;;;4.22;;
11703;SDS011;5908;51.354;7.458;2023-07-13T04:05:52;7.47;;;3.42;;
11703;SDS011;5908;51.354;7.458;2023-07-13T04:08:20;6.80;;;2.35;;
11703;SDS011;5908;51.354;7.458;2023-07-13T04:10:48;5.13;;;2.60;;
11703;SDS011;5908;51.354;7.458;2023-07-13T04:13:15;3.97;;;3.22;;
11703;SDS011;5908;51.354;7.458;2023-07-13T04:15:41;4.32;;;3.05;;
11703;SDS011;5908;51.354;7.458;2023-07-13T04:18:10;9.80;;;6.35;;
11703;SDS011;5908;51.354;7.458;2023-07-13T04:20:36;8.30;;;4.00;;
11703;SDS011;5908;51.354;7.458;2023-07-13T04:23:03;6.50;;;3.28;;
11703;SDS011;5908;51.354;7.458;2023-07-13T04:25:30;7.65;;;3.05;;
11703;SDS011;5908;51.354;7.458;2023-07-13T04:27:58;10.50;;;6.82;;
11703;SDS011;5908;51.354;7.458;2023-07-13T04:35:19;8.38;;;4.72;;
11703;SDS011;5908;51.354;7.458;2023-07-13T04:37:46;9.27;;;7.15;;
11703;SDS011;5908;51.354;7.458;2023-07-13T04:40:15;8.25;;;5.50;;
11703;SDS011;5908;51.354;7.458;2023-07-13T04:42:42;9.32;;;3.30;;
11703;SDS011;5908;51.354;7.458;2023-07-13T04:45:11;7.95;;;3.38;;
11703;SDS011;5908;51.354;7.458;2023-07-13T04:47:38;6.65;;;3.10;;
11703;SDS011;5908;51.354;7.458;2023-07-13T04:50:05;4.55;;;2.60;;
11703;SDS011;5908;51.354;7.458;2023-07-13T04:52:32;6.40;;;2.20;;
11703;SDS011;5908;51.354;7.458;2023-07-13T04:55:00;5.93;;;2.40;;
11703;SDS011;5908;51.354;7.458;2023-07-13T04:57:26;5.60;;;2.60;;
11703;SDS011;5908;51.354;7.458;2023-07-13T04:59:53;4.25;;;2.60;;
11703;SDS011;5908;51.354;7.458;2023-07-13T05:02:21;7.45;;;3.40;;
11703;SDS011;5908;51.354;7.458;2023-07-13T05:09:42;5.03;;;2.80;;
11703;SDS011;5908;51.354;7.458;2023-07-13T05:12:09;8.27;;;3.30;;
11703;SDS011;5908;51.354;7.458;2023-07-13T05:14:36;5.90;;;2.22;;
11703;SDS011;5908;51.354;7.458;2023-07-13T05:17:03;5.10;;;2.30;;
11703;SDS011;5908;51.354;7.458;2023-07-13T05:19:31;5.18;;;2.50;;
11703;SDS011;5908;51.354;7.458;2023-07-13T05:21:58;6.45;;;3.22;;
11703;SDS011;5908;51.354;7.458;2023-07-13T05:24:25;6.78;;;2.40;;
11703;SDS011;5908;51.354;7.458;2023-07-13T05:26:52;7.63;;;2.67;;
11703;SDS011;5908;51.354;7.458;2023-07-13T05:29:19;10.90;;;7.70;;
11703;SDS011;5908;51.354;7.458;2023-07-13T05:31:46;6.78;;;4.10;;
11703;SDS011;5908;51.354;7.458;2023-07-13T05:34:12;26.17;;;17.55;;
11703;SDS011;5908;51.354;7.458;2023-07-13T05:36:41;17.92;;;10.73;;
11703;SDS011;5908;51.354;7.458;2023-07-13T05:39:07;7.82;;;3.42;;
11703;SDS011;5908;51.354;7.458;2023-07-13T05:41:35;21.38;;;15.48;;
11703;SDS011;5908;51.354;7.458;2023-07-13T05:44:02;8.10;;;3.08;;
11703;SDS011;5908;51.354;7.458;2023-07-13T05:46:29;6.95;;;3.17;;
11703;SDS011;5908;51.354;7.458;2023-07-13T05:48:56;6.18;;;2.55;;
11703;SDS011;5908;51.354;7.458;2023-07-13T05:51:23;8.80;;;4.75;;
11703;SDS011;5908;51.354;7.458;2023-07-13T05:53:51;7.88;;;3.17;;
11703;SDS011;5908;51.354;7.458;2023-07-13T05:56:18;8.25;;;2.80;;
11703;SDS011;5908;51.354;7.458;2023-07-13T05:58:44;7.25;;;2.70;;
11703;SDS011;5908;51.354;7.458;2023-07-13T06:01:13;5.82;;;3.13;;
11703;SDS011;5908;51.354;7.458;2023-07-13T06:03:40;6.22;;;3.10;;
11703;SDS011;5908;51.354;7.458;2023-07-13T06:06:08;7.82;;;3.13;;
11703;SDS011;5908;51.354;7.458;2023-07-13T06:08:36;5.47;;;3.03;;
11703;SDS011;5908;51.354;7.458;2023-07-13T06:11:05;8.30;;;3.35;;
11703;SDS011;5908;51.354;7.458;2023-07-13T06:13:34;7.53;;;2.83;;
11703;SDS011;5908;51.354;7.458;2023-07-13T06:16:01;10.63;;;3.10;;
11703;SDS011;5908;51.354;7.458;2023-07-13T06:18:30;6.32;;;2.60;;
11703;SDS011;5908;51.354;7.458;2023-07-13T06:20:57;5.90;;;2.58;;
11703;SDS011;5908;51.354;7.458;2023-07-13T06:23:24;7.65;;;2.40;;
11703;SDS011;5908;51.354;7.458;2023-07-13T06:25:51;7.47;;;2.90;;
11703;SDS011;5908;51.354;7.458;2023-07-13T06:28:19;6.70;;;2.90;;
11703;SDS011;5908;51.354;7.458;2023-07-13T06:30:46;8.27;;;3.05;;
11703;SDS011;5908;51.354;7.458;2023-07-13T06:33:13;6.13;;;3.28;;
11703;SDS011;5908;51.354;7.458;2023-07-13T06:35:39;7.57;;;3.15;;
11703;SDS011;5908;51.354;7.458;2023-07-13T06:38:06;7.40;;;3.05;;
11703;SDS011;5908;51.354;7.458;2023-07-13T06:40:33;7.75;;;2.85;;
11703;SDS011;5908;51.354;7.458;2023-07-13T06:43:00;6.97;;;3.42;;
11703;SDS011;5908;51.354;7.458;2023-07-13T06:45:28;18.85;;;13.25;;
11703;SDS011;5908;51.354;7.458;2023-07-13T06:47:55;12.77;;;6.20;;
11703;SDS011;5908;51.354;7.458;2023-07-13T06:50:21;10.15;;;4.82;;
11703;SDS011;5908;51.354;7.458;2023-07-13T06:52:48;9.40;;;3.45;;
11703;SDS011;5908;51.354;7.458;2023-07-13T06:55:15;8.68;;;3.20;;
11703;SDS011;5908;51.354;7.458;2023-07-13T06:57:42;5.05;;;2.80;;
11703;SDS011;5908;51.354;7.458;2023-07-13T07:00:09;6.05;;;3.05;;
11703;SDS011;5908;51.354;7.458;2023-07-13T07:05:05;8.45;;;3.60;;
11703;SDS011;5908;51.354;7.458;2023-07-13T07:09:58;5.32;;;2.67;;
11703;SDS011;5908;51.354;7.458;2023-07-13T07:14:51;7.05;;;2.60;;
11703;SDS011;5908;51.354;7.458;2023-07-13T07:17:18;8.75;;;2.83;;
11703;SDS011;5908;51.354;7.458;2023-07-13T07:19:46;7.53;;;2.72;;
11703;SDS011;5908;51.354;7.458;2023-07-13T07:22:13;8.65;;;2.85;;
11703;SDS011;5908;51.354;7.458;2023-07-13T07:24:40;6.18;;;2.55;;
11703;SDS011;5908;51.354;7.458;2023-07-13T08:43:11;6.10;;;3.20;;
11703;SDS011;5908;51.354;7.458;2023-07-13T08:45:43;7.82;;;3.05;;
11703;SDS011;5908;51.354;7.458;2023-07-13T08:48:14;5.57;;;2.67;;
11703;SDS011;5908;51.354;7.458;2023-07-13T08:50:46;5.50;;;2.70;;
11703;SDS011;5908;51.354;7.458;2023-07-13T08:53:17;8.20;;;3.03;;
11703;SDS011;5908;51.354;7.458;2023-07-13T08:55:45;6.85;;;2.88;;
11703;SDS011;5908;51.354;7.458;2023-07-13T08:58:13;7.35;;;2.78;;
11703;SDS011;5908;51.354;7.458;2023-07-13T09:00:44;5.68;;;2.78;;
11703;SDS011;5908;51.354;7.458;2023-07-13T09:03:18;7.28;;;3.00;;
11703;SDS011;5908;51.354;7.458;2023-07-13T09:05:49;7.97;;;3.20;;
11703;SDS011;5908;51.354;7.458;2023-07-13T09:08:25;6.13;;;2.85;;
11703;SDS011;5908;51.354;7.458;2023-07-13T09:11:07;7.82;;;3.15;;
11703;SDS011;5908;51.354;7.458;2023-07-13T09:13:46;7.60;;;3.38;;
11703;SDS011;5908;51.354;7.458;2023-07-13T09:16:22;5.70;;;2.80;;
11703;SDS011;5908;51.354;7.458;2023-07-13T09:18:51;6.18;;;3.00;;
11703;SDS011;5908;51.354;7.458;2023-07-13T09:21:21;7.00;;;3.45;;
11703;SDS011;5908;51.354;7.458;2023-07-13T09:23:52;5.90;;;2.87;;
11703;SDS011;5908;51.354;7.458;2023-07-13T09:26:21;5.38;;;3.10;;
11703;SDS011;5908;51.354;7.458;2023-07-13T09:33:50;8.52;;;2.90;;
11703;SDS011;5908;51.354;7.458;2023-07-13T09:36:18;5.30;;;2.80;;
11703;SDS011;5908;51.354;7.458;2023-07-13T10:01:13;7.60;;;4.53;;
11703;SDS011;5908;51.354;7.458;2023-07-13T10:03:42;7.03;;;3.53;;
11703;SDS011;5908;51.354;7.458;2023-07-13T10:06:20;7.93;;;3.40;;
11703;SDS011;5908;51.354;7.458;2023-07-13T10:08:49;6.93;;;3.05;;
11703;SDS011;5908;51.354;7.458;2023-07-13T10:11:18;7.65;;;3.50;;
11703;SDS011;5908;51.354;7.458;2023-07-13T10:13:48;7.32;;;3.13;;
11703;SDS011;5908;51.354;7.458;2023-07-13T10:16:18;8.93;;;2.70;;
11703;SDS011;5908;51.354;7.458;2023-07-13T10:18:47;6.40;;;2.78;;
11703;SDS011;5908;51.354;7.458;2023-07-13T10:21:17;6.63;;;2.92;;
11703;SDS011;5908;51.354;7.458;2023-07-13T10:23:52;6.90;;;3.17;;
11703;SDS011;5908;51.354;7.458;2023-07-13T10:26:23;5.38;;;2.60;;
11703;SDS011;5908;51.354;7.458;2023-07-13T10:28:54;6.93;;;3.22;;
11703;SDS011;5908;51.354;7.458;2023-07-13T10:31:25;4.95;;;2.90;;
11703;SDS011;5908;51.354;7.458;2023-07-13T10:33:52;6.55;;;2.63;;
11703;SDS011;5908;51.354;7.458;2023-07-13T10:36:22;6.65;;;3.00;;
11703;SDS011;5908;51.354;7.458;2023-07-13T10:38:57;5.93;;;3.20;;
11703;SDS011;5908;51.354;7.458;2023-07-13T10:41:28;6.50;;;3.20;;
11703;SDS011;5908;51.354;7.458;2023-07-13T10:44:00;7.50;;;2.95;;
11703;SDS011;5908;51.354;7.458;2023-07-13T10:46:28;5.75;;;2.80;;
11703;SDS011;5908;51.354;7.458;2023-07-13T10:48:57;8.52;;;2.90;;
11703;SDS011;5908;51.354;7.458;2023-07-13T10:51:25;6.53;;;2.40;;
11703;SDS011;5908;51.354;7.458;2023-07-13T10:54:16;5.35;;;2.78;;
11703;SDS011;5908;51.354;7.458;2023-07-13T10:56:47;11.10;;;6.37;;
11703;SDS011;5908;51.354;7.458;2023-07-13T10:59:17;6.87;;;4.80;;
11703;SDS011;5908;51.354;7.458;2023-07-13T11:01:53;7.15;;;3.70;;
11703;SDS011;5908;51.354;7.458;2023-07-13T11:04:22;6.72;;;3.42;;
11703;SDS011;5908;51.354;7.458;2023-07-13T11:06:52;4.95;;;2.55;;
11703;SDS011;5908;51.354;7.458;2023-07-13T11:09:35;4.95;;;2.65;;
11703;SDS011;5908;51.354;7.458;2023-07-13T11:12:08;6.90;;;2.53;;
11703;SDS011;5908;51.354;7.458;2023-07-13T11:14:42;7.63;;;3.90;;
11703;SDS011;5908;51.354;7.458;2023-07-13T11:30:37;4.53;;;2.40;;
11703;SDS011;5908;51.354;7.458;2023-07-13T11:33:16;6.38;;;2.40;;
11703;SDS011;5908;51.354;7.458;2023-07-13T11:48:17;6.00;;;2.97;;
11703;SDS011;5908;51.354;7.458;2023-07-13T11:50:49;4.35;;;2.00;;
11703;SDS011;5908;51.354;7.458;2023-07-13T11:53:21;3.90;;;2.03;;
11703;SDS011;5908;51.354;7.458;2023-07-13T11:55:50;4.88;;;2.17;;
11703;SDS011;5908;51.354;7.458;2023-07-13T12:05:54;7.40;;;2.38;;
11703;SDS011;5908;51.354;7.458;2023-07-13T12:45:57;5.50;;;2.92;;
11703;SDS011;5908;51.354;7.458;2023-07-13T12:48:25;5.88;;;2.45;;
11703;SDS011;5908;51.354;7.458;2023-07-13T12:50:53;3.80;;;2.20;;
11703;SDS011;5908;51.354;7.458;2023-07-13T12:53:21;6.85;;;2.45;;
11703;SDS011;5908;51.354;7.458;2023-07-13T12:55:54;5.47;;;3.67;;
11703;SDS011;5908;51.354;7.458;2023-07-13T12:58:25;5.13;;;2.55;;
11703;SDS011;5908;51.354;7.458;2023-07-13T13:00:54;6.45;;;2.40;;
11703;SDS011;5908;51.354;7.458;2023-07-13T13:03:24;5.63;;;2.63;;
11703;SDS011;5908;51.354;7.458;2023-07-13T13:05:56;4.70;;;2.37;;
11703;SDS011;5908;51.354;7.458;2023-07-13T13:08:27;5.22;;;2.25;;
11703;SDS011;5908;51.354;7.458;2023-07-13T13:10:53;4.57;;;2.40;;
11703;SDS011;5908;51.354;7.458;2023-07-13T13:13:20;10.67;;;5.87;;
11703;SDS011;5908;51.354;7.458;2023-07-13T13:15:47;6.47;;;3.10;;
11703;SDS011;5908;51.354;7.458;2023-07-13T13:18:18;4.90;;;2.20;;
11703;SDS011;5908;51.354;7.458;2023-07-13T13:20:47;4.97;;;2.50;;
11703;SDS011;5908;51.354;7.458;2023-07-13T13:23:14;16.40;;;11.37;;
11703;SDS011;5908;51.354;7.458;2023-07-13T13:25:42;13.23;;;9.43;;
11703;SDS011;5908;51.354;7.458;2023-07-13T13:28:13;23.08;;;18.02;;
11703;SDS011;5908;51.354;7.458;2023-07-13T13:30:41;18.30;;;14.83;;
11703;SDS011;5908;51.354;7.458;2023-07-13T13:33:09;19.73;;;15.60;;
11703;SDS011;5908;51.354;7.458;2023-07-13T13:35:39;9.10;;;7.60;;
11703;SDS011;5908;51.354;7.458;2023-07-13T13:38:09;29.58;;;23.75;;
11703;SDS011;5908;51.354;7.458;2023-07-13T13:40:39;7.05;;;4.57;;
11703;SDS011;5908;51.354;7.458;2023-07-13T13:43:16;9.20;;;5.97;;
11703;SDS011;5908;51.354;7.458;2023-07-13T13:45:43;12.18;;;6.13;;
11703;SDS011;5908;51.354;7.458;2023-07-13T13:48:14;18.38;;;10.68;;
11703;SDS011;5908;51.354;7.458;2023-07-13T13:50:45;6.45;;;3.40;;
11703;SDS011;5908;51.354;7.458;2023-07-13T13:53:13;5.35;;;3.63;;
11703;SDS011;5908;51.354;7.458;2023-07-13T13:55:40;4.28;;;2.03;;
11703;SDS011;5908;51.354;7.458;2023-07-13T13:58:08;5.43;;;2.70;;
11703;SDS011;5908;51.354;7.458;2023-07-13T14:00:36;5.90;;;2.78;;
11703;SDS011;5908;51.354;7.458;2023-07-13T14:03:03;6.30;;;3.83;;
11703;SDS011;5908;51.354;7.458;2023-07-13T14:05:32;6.57;;;3.25;;
11703;SDS011;5908;51.354;7.458;2023-07-13T14:08:00;4.10;;;2.10;;
11703;SDS011;5908;51.354;7.458;2023-07-13T14:10:27;5.60;;;2.07;;
11703;SDS011;5908;51.354;7.458;2023-07-13T14:15:23;3.60;;;1.60;;
11703;SDS011;5908;51.354;7.458;2023-07-13T14:17:51;3.67;;;1.80;;
11703;SDS011;5908;51.354;7.458;2023-07-13T14:20:19;2.58;;;1.70;;
11703;SDS011;5908;51.354;7.458;2023-07-13T14:22:49;5.50;;;2.00;;
11703;SDS011;5908;51.354;7.458;2023-07-13T14:25:17;5.55;;;2.03;;
11703;SDS011;5908;51.354;7.458;2023-07-13T14:27:45;5.40;;;2.70;;
11703;SDS011;5908;51.354;7.458;2023-07-13T14:30:18;7.05;;;5.35;;
11703;SDS011;5908;51.354;7.458;2023-07-13T14:32:46;13.32;;;11.48;;
11703;SDS011;5908;51.354;7.458;2023-07-13T14:35:15;20.10;;;16.80;;
11703;SDS011;5908;51.354;7.458;2023-07-13T14:37:43;6.45;;;3.90;;
11703;SDS011;5908;51.354;7.458;2023-07-13T14:40:12;14.83;;;12.60;;
11703;SDS011;5908;51.354;7.458;2023-07-13T14:42:41;8.70;;;7.13;;
11703;SDS011;5908;51.354;7.458;2023-07-13T14:45:12;6.07;;;5.28;;
11703;SDS011;5908;51.354;7.458;2023-07-13T14:47:40;6.23;;;4.13;;
11703;SDS011;5908;51.354;7.458;2023-07-13T14:50:11;4.60;;;2.50;;
11703;SDS011;5908;51.354;7.458;2023-07-13T14:52:41;5.95;;;3.33;;
11703;SDS011;5908;51.354;7.458;2023-07-13T14:55:09;7.97;;;4.30;;
11703;SDS011;5908;51.354;7.458;2023-07-13T14:57:37;21.92;;;6.60;;
11703;SDS011;5908;51.354;7.458;2023-07-13T15:00:07;8.90;;;5.93;;
11703;SDS011;5908;51.354;7.458;2023-07-13T15:17:35;7.10;;;4.57;;
11703;SDS011;5908;51.354;7.458;2023-07-13T15:22:31;8.82;;;6.00;;
11703;SDS011;5908;51.354;7.458;2023-07-13T15:24:58;6.60;;;3.83;;
11703;SDS011;5908;51.354;7.458;2023-07-13T15:27:25;6.10;;;3.97;;
11703;SDS011;5908;51.354;7.458;2023-07-13T15:29:52;6.55;;;3.72;;
11703;SDS011;5908;51.354;7.458;2023-07-13T15:32:20;6.73;;;3.87;;
11703;SDS011;5908;51.354;7.458;2023-07-13T15:34:48;5.50;;;3.72;;
11703;SDS011;5908;51.354;7.458;2023-07-13T15:37:15;5.63;;;3.43;;
11703;SDS011;5908;51.354;7.458;2023-07-13T15:39:42;6.38;;;3.60;;
11703;SDS011;5908;51.354;7.458;2023-07-13T15:42:12;6.50;;;4.40;;
11703;SDS011;5908;51.354;7.458;2023-07-13T15:44:41;5.45;;;3.50;;
11703;SDS011;5908;51.354;7.458;2023-07-13T15:47:08;11.75;;;9.45;;
11703;SDS011;5908;51.354;7.458;2023-07-13T17:13:47;24.08;;;18.40;;
11703;SDS011;5908;51.354;7.458;2023-07-13T17:16:15;147.27;;;87.30;;
11703;SDS011;5908;51.354;7.458;2023-07-13T17:18:42;22.73;;;18.10;;
11703;SDS011;5908;51.354;7.458;2023-07-13T17:21:12;10.57;;;9.00;;
11703;SDS011;5908;51.354;7.458;2023-07-13T17:23:41;40.63;;;30.48;;
11703;SDS011;5908;51.354;7.458;2023-07-13T17:26:09;37.42;;;28.88;;
11703;SDS011;5908;51.354;7.458;2023-07-13T17:28:35;25.65;;;22.88;;
11703;SDS011;5908;51.354;7.458;2023-07-13T17:31:03;66.13;;;59.17;;
11703;SDS011;5908;51.354;7.458;2023-07-13T17:33:34;46.38;;;41.38;;
11703;SDS011;5908;51.354;7.458;2023-07-13T17:45:56;85.35;;;76.43;;
11703;SDS011;5908;51.354;7.458;2023-07-13T17:48:25;87.32;;;78.07;;
11703;SDS011;5908;51.354;7.458;2023-07-13T17:50:53;103.90;;;92.93;;
11703;SDS011;5908;51.354;7.458;2023-07-13T17:53:22;124.63;;;111.35;;
11703;SDS011;5908;51.354;7.458;2023-07-13T17:55:49;58.03;;;51.63;;
11703;SDS011;5908;51.354;7.458;2023-07-13T17:58:17;43.33;;;38.67;;
11703;SDS011;5908;51.354;7.458;2023-07-13T18:00:46;19.50;;;16.48;;
11703;SDS011;5908;51.354;7.458;2023-07-13T18:03:14;19.52;;;17.08;;
11703;SDS011;5908;51.354;7.458;2023-07-13T18:05:44;7.13;;;5.43;;
11703;SDS011;5908;51.354;7.458;2023-07-13T18:08:20;41.55;;;37.10;;
11703;SDS011;5908;51.354;7.458;2023-07-13T18:10:48;41.00;;;36.53;;
11703;SDS011;5908;51.354;7.458;2023-07-13T18:13:16;17.83;;;12.63;;
11703;SDS011;5908;51.354;7.458;2023-07-13T18:15:43;23.48;;;20.95;;
11703;SDS011;5908;51.354;7.458;2023-07-13T18:18:11;113.32;;;101.50;;
11703;SDS011;5908;51.354;7.458;2023-07-13T18:20:38;43.97;;;39.17;;
11703;SDS011;5908;51.354;7.458;2023-07-13T18:23:09;67.10;;;57.25;;
11703;SDS011;5908;51.354;7.458;2023-07-13T18:25:44;103.15;;;91.20;;
11703;SDS011;5908;51.354;7.458;2023-07-13T18:28:12;37.13;;;32.40;;
11703;SDS011;5908;51.354;7.458;2023-07-13T18:30:41;69.35;;;59.08;;
11703;SDS011;5908;51.354;7.458;2023-07-13T18:33:12;39.00;;;34.70;;
11703;SDS011;5908;51.354;7.458;2023-07-13T18:35:44;63.95;;;56.97;;
11703;SDS011;5908;51.354;7.458;2023-07-13T18:38:14;45.55;;;40.72;;
11703;SDS011;5908;51.354;7.458;2023-07-13T18:40:44;30.40;;;26.73;;
11703;SDS011;5908;51.354;7.458;2023-07-13T18:43:11;77.80;;;69.88;;
11703;SDS011;5908;51.354;7.458;2023-07-13T18:45:39;26.92;;;24.17;;
11703;SDS011;5908;51.354;7.458;2023-07-13T19:02:59;17.55;;;13.60;;
11703;SDS011;5908;51.354;7.458;2023-07-13T19:10:21;11.88;;;10.50;;
11703;SDS011;5908;51.354;7.458;2023-07-13T19:12:51;8.15;;;5.65;;
11703;SDS011;5908;51.354;7.458;2023-07-13T19:15:24;11.00;;;8.35;;
11703;SDS011;5908;51.354;7.458;2023-07-13T19:20:22;8.85;;;5.93;;
11703;SDS011;5908;51.354;7.458;2023-07-13T19:22:51;7.65;;;4.43;;
11703;SDS011;5908;51.354;7.458;2023-07-13T19:25:21;12.27;;;10.30;;
11703;SDS011;5908;51.354;7.458;2023-07-13T19:30:16;10.15;;;8.70;;
11703;SDS011;5908;51.354;7.458;2023-07-13T19:32:44;7.40;;;4.65;;
